createdAt,value
2023-02-23T00:03:18.397Z,101257.56
2023-02-23T00:08:20.309Z,101258.13
2023-02-23T00:13:21.841Z,101259.78
2023-02-23T00:18:23.360Z,101269.19
2023-02-23T00:23:27.360Z,101268.59
2023-02-23T00:28:28.873Z,101267.28
2023-02-23T00:33:31.455Z,101264.97
2023-02-23T00:38:36.041Z,101267.38
2023-02-23T00:43:39.699Z,101278.94
2023-02-23T00:48:41.197Z,101274.06
2023-02-23T00:53:44.156Z,101280.72
2023-02-23T00:58:45.625Z,101275.00
2023-02-23T01:03:47.187Z,101277.09
2023-02-23T01:08:52.233Z,101284.53
2023-02-23T01:13:56.774Z,101266.34
2023-02-23T01:19:00.367Z,101275.72
2023-02-23T01:24:02.382Z,101278.56
2023-02-23T01:29:12.103Z,101281.38
2023-02-23T01:34:15.125Z,101283.13
2023-02-23T01:39:19.962Z,101288.88
2023-02-23T01:44:21.598Z,101284.06
2023-02-23T01:49:26.207Z,101282.47
2023-02-23T01:54:33.279Z,101284.00
2023-02-23T01:59:40.585Z,101273.25
2023-02-23T02:04:45.993Z,101273.16
2023-02-23T02:10:17.061Z,101276.34
2023-02-23T02:15:19.726Z,101284.13
2023-02-23T02:20:58.638Z,101282.66
2023-02-23T02:26:30.438Z,101281.81
2023-02-23T02:32:01.353Z,101285.13
2023-02-23T02:37:37.736Z,101286.59
2023-02-23T02:43:10.097Z,101284.13
2023-02-23T02:48:30.929Z,101285.13
2023-02-23T02:54:07.692Z,101281.47
2023-02-23T02:59:38.825Z,101284.91
2023-02-23T03:04:59.185Z,101274.06
2023-02-23T03:10:32.967Z,101284.78
2023-02-23T03:19:44.588Z,101286.84
2023-02-23T03:25:21.232Z,101280.31
2023-02-23T03:30:58.390Z,101287.41
2023-02-23T03:36:36.094Z,101294.06
2023-02-23T03:41:57.983Z,101297.22
2023-02-23T03:47:20.317Z,101295.09
2023-02-23T03:52:46.554Z,101294.97
2023-02-23T03:58:11.455Z,101304.81
2023-02-23T04:03:35.962Z,101303.69
2023-02-23T04:08:57.538Z,101305.44
2023-02-23T04:14:01.941Z,101317.00
2023-02-23T04:19:03.492Z,101315.88
2023-02-23T04:24:05.105Z,101319.72
2023-02-23T04:29:06.623Z,101319.00
2023-02-23T04:34:08.510Z,101322.41
2023-02-23T04:39:09.985Z,101327.59
2023-02-23T04:44:11.539Z,101327.31
2023-02-23T04:49:13.142Z,101336.44
2023-02-23T04:54:14.768Z,101327.59
2023-02-23T04:59:16.366Z,101340.16
2023-02-23T05:04:17.863Z,101342.47
2023-02-23T05:09:19.328Z,101351.47
2023-02-23T05:14:20.844Z,101351.00
2023-02-23T05:19:22.347Z,101358.41
2023-02-23T05:24:23.868Z,101360.88
2023-02-23T05:29:25.402Z,101352.72
2023-02-23T05:34:27.200Z,101354.59
2023-02-23T05:39:28.894Z,101369.16
2023-02-23T05:44:30.434Z,101370.59
2023-02-23T05:49:32.032Z,101366.03
2023-02-23T05:54:33.511Z,101368.47
2023-02-23T05:59:34.983Z,101363.03
2023-02-23T06:04:36.452Z,101365.03
2023-02-23T06:09:37.963Z,101368.63
2023-02-23T06:14:39.435Z,101363.19
2023-02-23T06:19:40.958Z,101375.63
2023-02-23T06:24:42.536Z,101381.53
2023-02-23T06:29:44.107Z,101378.94
2023-02-23T06:34:45.657Z,101398.78
2023-02-23T06:39:47.226Z,101400.53
2023-02-23T06:44:48.726Z,101396.94
2023-02-23T06:49:50.208Z,101402.25
2023-02-23T06:54:51.876Z,101410.84
2023-02-23T06:59:53.452Z,101412.69
2023-02-23T07:04:54.947Z,101422.31
2023-02-23T07:09:56.427Z,101433.75
2023-02-23T07:14:57.991Z,101429.16
2023-02-23T07:19:59.502Z,101440.91
2023-02-23T07:25:01.195Z,101446.19
2023-02-23T07:30:03.085Z,101452.81
2023-02-23T07:35:06.146Z,101457.53
2023-02-23T07:40:08.594Z,101467.38
2023-02-23T07:45:10.936Z,101477.84
2023-02-23T07:50:13.996Z,101473.41
2023-02-23T07:55:15.489Z,101487.59
2023-02-23T08:00:17.420Z,101491.88
2023-02-23T08:05:20.068Z,101495.06
2023-02-23T08:10:22.144Z,101495.28
2023-02-23T08:15:23.710Z,101491.88
2023-02-23T08:20:25.443Z,101492.88
2023-02-23T08:25:30.040Z,101503.34
2023-02-23T08:30:31.916Z,101504.50
2023-02-23T08:35:33.542Z,101502.91
2023-02-23T08:40:35.069Z,101503.50
2023-02-23T08:45:37.871Z,101514.22
2023-02-23T08:50:39.408Z,101527.34
2023-02-23T08:55:40.929Z,101532.56
2023-02-23T09:00:42.465Z,101525.69
2023-02-23T09:05:44.240Z,101525.69
2023-02-23T09:10:45.823Z,101541.69
2023-02-23T09:15:48.044Z,101549.22
2023-02-23T09:20:50.053Z,101557.06
2023-02-23T09:25:51.553Z,101550.75
2023-02-23T09:30:53.158Z,101550.69
2023-02-23T09:35:54.804Z,101558.03
2023-02-23T09:40:56.286Z,101550.09
2023-02-23T09:46:19.876Z,101561.81
2023-02-23T09:51:22.108Z,101558.25
2023-02-23T09:56:35.781Z,101559.75
2023-02-23T10:01:41.029Z,101568.38
2023-02-23T10:06:47.522Z,101588.78
2023-02-23T10:12:03.258Z,101590.09
2023-02-23T10:17:24.286Z,101585.81
2023-02-23T10:22:27.380Z,101594.13
2023-02-23T10:27:38.089Z,101576.88
2023-02-23T10:33:07.329Z,101598.00
2023-02-23T10:38:15.597Z,101598.53
2023-02-23T10:43:17.130Z,101603.84
2023-02-23T10:48:24.422Z,101601.84
2023-02-23T10:53:32.706Z,101611.91
2023-02-23T10:58:46.753Z,101621.94
2023-02-23T11:03:57.571Z,101626.03
2023-02-23T11:09:33.053Z,101637.91
2023-02-23T11:14:43.847Z,101638.44
2023-02-23T11:19:46.430Z,101640.03
2023-02-23T11:24:47.992Z,101642.41
2023-02-23T11:29:52.428Z,101633.00
2023-02-23T11:35:12.262Z,101639.69
2023-02-23T11:40:29.523Z,101637.25
2023-02-23T11:45:33.593Z,101642.34
2023-02-23T11:50:36.274Z,101636.44
2023-02-23T11:55:38.931Z,101641.34
2023-02-23T12:00:40.508Z,101630.53
2023-02-23T12:05:52.788Z,101642.88
2023-02-23T12:11:00.274Z,101632.84
2023-02-23T12:16:15.549Z,101642.66
2023-02-23T12:21:39.616Z,101636.63
2023-02-23T12:26:58.310Z,101634.66
2023-02-23T12:32:10.053Z,101639.09
2023-02-23T12:37:30.240Z,101638.34
2023-02-23T12:42:45.280Z,101642.69
2023-02-23T12:48:08.143Z,101650.19
2023-02-23T12:53:21.646Z,101648.41
2023-02-23T12:58:45.733Z,101657.09
2023-02-23T13:04:15.145Z,101654.81
2023-02-23T13:09:22.373Z,101656.41
2023-02-23T13:14:50.957Z,101660.34
2023-02-23T13:19:58.816Z,101663.16
2023-02-23T13:25:05.210Z,101654.53
2023-02-23T13:30:10.981Z,101644.81
2023-02-23T13:35:19.040Z,101652.75
2023-02-23T13:40:32.809Z,101652.03
2023-02-23T13:46:11.897Z,101666.97
2023-02-23T13:51:19.712Z,101662.16
2023-02-23T13:56:24.866Z,101669.75
2023-02-23T14:01:31.916Z,101659.00
2023-02-23T14:06:34.518Z,101665.69
2023-02-23T14:11:44.818Z,101674.72
2023-02-23T14:17:28.876Z,101685.66
2023-02-23T14:22:30.480Z,101676.44
2023-02-23T14:27:43.896Z,101676.56
2023-02-23T14:32:47.938Z,101685.78
2023-02-23T14:38:00.727Z,101685.44
2023-02-23T14:43:03.654Z,101689.75
2023-02-23T14:48:12.719Z,101693.44
2023-02-23T14:53:21.489Z,101693.81
2023-02-23T14:58:33.461Z,101703.06
2023-02-23T15:03:35.056Z,101707.03
2023-02-23T15:08:43.529Z,101690.63
2023-02-23T15:13:50.241Z,101705.53
2023-02-23T15:18:53.268Z,101696.28
2023-02-23T15:24:11.893Z,101708.63
2023-02-23T15:29:15.479Z,101716.63
2023-02-23T15:34:21.910Z,101712.56
2023-02-23T15:39:39.973Z,101710.81
2023-02-23T15:44:44.830Z,101707.38
2023-02-23T15:49:47.025Z,101721.78
2023-02-23T15:55:00.052Z,101730.22
2023-02-23T16:00:11.771Z,101728.75
2023-02-23T16:05:25.698Z,101738.50
2023-02-23T16:10:29.025Z,101728.13
2023-02-23T16:15:35.540Z,101728.38
2023-02-23T16:20:42.846Z,101740.94
2023-02-23T16:25:46.128Z,101747.22
2023-02-23T16:31:03.223Z,101747.44
2023-02-23T16:36:08.087Z,101749.66
2023-02-23T16:41:18.228Z,101750.16
2023-02-23T16:46:23.712Z,101744.00
2023-02-23T16:51:28.159Z,101743.97
2023-02-23T16:56:30.688Z,101748.06
2023-02-23T17:01:32.209Z,101755.16
2023-02-23T17:06:33.709Z,101749.25
2023-02-23T17:11:35.890Z,101760.47
2023-02-23T17:16:37.437Z,101753.66
2023-02-23T17:21:40.252Z,101755.00
2023-02-23T17:26:42.268Z,101771.34
2023-02-23T17:31:43.887Z,101771.59
2023-02-23T17:36:45.472Z,101770.56
2023-02-23T17:41:47.103Z,101772.16
2023-02-23T17:46:48.872Z,101773.28
2023-02-23T17:51:50.445Z,101773.50
2023-02-23T17:56:51.942Z,101780.31
2023-02-23T18:01:53.521Z,101781.59
2023-02-23T18:06:56.694Z,101777.75
2023-02-23T18:11:59.319Z,101777.63
2023-02-23T18:17:01.238Z,101772.81
2023-02-23T18:22:03.155Z,101786.72
2023-02-23T18:27:05.013Z,101794.84
2023-02-23T18:32:07.808Z,101792.69
2023-02-23T18:37:10.180Z,101800.41
2023-02-23T18:42:11.892Z,101799.56
2023-02-23T18:47:14.482Z,101797.19
2023-02-23T18:52:16.029Z,101805.13
2023-02-23T18:57:17.567Z,101803.94
2023-02-23T19:02:19.033Z,101792.59
2023-02-23T19:07:20.552Z,101792.41
2023-02-23T19:12:22.126Z,101783.34
2023-02-23T19:17:28.707Z,101788.63
2023-02-23T19:22:30.187Z,101779.69
2023-02-23T19:27:34.265Z,101782.28
2023-02-23T19:32:36.770Z,101776.97
2023-02-23T19:37:39.994Z,101780.44
2023-02-23T19:42:45.720Z,101778.47
2023-02-23T19:47:47.548Z,101772.72
2023-02-23T19:52:49.106Z,101765.25
2023-02-23T19:57:51.596Z,101767.84
2023-02-23T20:02:56.365Z,101760.16
2023-02-23T20:07:57.899Z,101765.22
2023-02-23T20:12:59.475Z,101764.97
2023-02-23T20:18:01.049Z,101775.41
2023-02-23T20:23:02.569Z,101773.84
2023-02-23T20:28:04.399Z,101776.97
2023-02-23T20:33:10.738Z,101773.66
2023-02-23T20:38:14.099Z,101774.13
2023-02-23T20:43:16.216Z,101760.28
2023-02-23T20:48:17.810Z,101752.00
2023-02-23T20:53:19.307Z,101750.66
2023-02-23T20:58:25.043Z,101748.94
2023-02-23T21:03:26.732Z,101758.28
2023-02-23T21:08:28.887Z,101755.78
2023-02-23T21:13:30.530Z,101750.56
2023-02-23T21:18:32.157Z,101743.16
2023-02-23T21:23:33.697Z,101743.72
2023-02-23T21:28:35.509Z,101743.16
2023-02-23T21:33:41.543Z,101744.56
2023-02-23T21:38:44.555Z,101738.72
2023-02-23T21:43:46.567Z,101731.31
2023-02-23T21:48:48.259Z,101735.53
2023-02-23T21:53:49.830Z,101728.41
2023-02-23T21:58:54.823Z,101725.66
2023-02-23T22:03:57.595Z,101724.69
2023-02-23T22:08:59.157Z,101724.28
2023-02-23T22:14:00.781Z,101715.47
2023-02-23T22:19:04.626Z,101707.38
2023-02-23T22:24:07.090Z,101709.28
2023-02-23T22:29:10.418Z,101700.16
2023-02-23T22:34:11.990Z,101701.38
2023-02-23T22:39:16.382Z,101689.16
2023-02-23T22:44:21.298Z,101692.81
2023-02-23T22:49:22.979Z,101682.28
2023-02-23T22:54:24.542Z,101679.97
2023-02-23T22:59:28.514Z,101660.00
2023-02-23T23:04:30.496Z,101655.66
2023-02-23T23:09:32.107Z,101648.13
2023-02-23T23:14:33.719Z,101643.47
2023-02-23T23:19:39.067Z,101626.47
2023-02-23T23:24:46.102Z,101625.31
2023-02-23T23:29:48.827Z,101620.84
2023-02-23T23:34:50.457Z,101609.00
2023-02-23T23:40:00.107Z,101599.88
2023-02-23T23:45:02.038Z,101603.47
2023-02-23T23:50:10.777Z,101594.59
2023-02-23T23:55:14.796Z,101587.03
